DNCA

Details ICAO DNCA (CBQ)
Name CALABAR
Region Nigeria
Timezone Africa/Lagos (UTC+1.0)
Plans Departing 10
Arriving 16
Stats Elevation 210 ft / 64 m (AMSL)
Location 4.976050° 8.347300°
Runways 1
Magnetic Variation 1.175° W
Sunrise 2018-10-22 05:12:44 UTC / 2018-10-22 06:12:44 Local
Sunset 2018-10-22 17:11:47 UTC / 2018-10-22 18:11:47 Local
Advertisement - Login to hide

Runways

ID Width Length Bearing (true/mag) Surface Threshold Overrun Markings Lighting
03 148 ft / 45 m 8,076 ft / 2,462 m 26.78° / 27.95° ASPHALT 0 ft / 0 m 200 ft / 61 m APP EDGE THRESHOLD
21 148 ft / 45 m 8,076 ft / 2,462 m 206.78° / 207.95° ASPHALT 0 ft / 0 m 200 ft / 61 m APP EDGE THRESHOLD ALSF-I

Approach Navaids

Runway Type Ident Frequency Range Bearing (true/mag) Slope Elevation
21 LOC-LOC ICL 109.10 MHz 18 nm / 33 km 208.93° / 210.11° - 200 ft / 61 m (AMSL)

Map

Weather


0- 5 10 15 20 25 30 35+ Temperature / °C

Clouds and Precipitation
Forecast for 2018-10-22 12:00 UTC. Updated 5 hours ago

Ground ~20,000 ft ~40,000 ft Winds

METAR

Not found

TAF

TAF DNCA 220945Z 2212/2318 32010KT 6000 BKN010 FEW018CB TEMPO 2214/2219 TS PROB30 2215/2219 05016G28KT 3000 -TSRA SQ BKN008 FEW018CB BECMG 2220/2222 00000KT SCT008

Frequencies

Tower 124.50 MHz
Warning: Do not use this data for real-world aviation or navigation. No guarantee of current accuracy is given.